createdAt,value
2023-01-07T00:01:24.962Z,42.05
2023-01-07T00:03:52.664Z,42.92
2023-01-07T00:06:23.369Z,40.05
2023-01-07T00:08:51.804Z,43.53
2023-01-07T00:11:21.117Z,45.08
2023-01-07T00:13:52.041Z,41.92
2023-01-07T00:16:21.958Z,44.05
2023-01-07T00:18:50.404Z,48.25
2023-01-07T00:21:18.538Z,54.95
2023-01-07T00:23:46.426Z,54.83
2023-01-07T00:26:18.591Z,54.85
2023-01-07T00:28:47.717Z,52.63
2023-01-07T00:31:20.465Z,53.33
2023-01-07T00:33:54.335Z,57.13
2023-01-07T00:36:27.415Z,55.90
2023-01-07T00:38:55.460Z,52.80
2023-01-07T00:41:22.711Z,54.67
2023-01-07T00:43:49.310Z,53.97
2023-01-07T00:46:16.230Z,60.08
2023-01-07T00:48:44.902Z,61.47
2023-01-07T00:51:13.544Z,62.80
2023-01-07T00:53:40.153Z,62.63
2023-01-07T00:56:06.960Z,66.78
2023-01-07T00:58:33.531Z,61.72
2023-01-07T01:01:01.956Z,54.90
2023-01-07T01:03:30.591Z,52.72
2023-01-07T01:06:02.628Z,56.00
2023-01-07T01:08:29.247Z,57.75
2023-01-07T01:10:56.053Z,59.72
2023-01-07T01:13:22.690Z,61.22
2023-01-07T01:15:49.748Z,56.40
2023-01-07T01:18:16.503Z,59.95
2023-01-07T01:20:43.218Z,59.20
2023-01-07T01:23:09.827Z,57.83
2023-01-07T01:25:36.407Z,56.45
2023-01-07T01:28:03.428Z,55.50
2023-01-07T01:30:29.987Z,56.50
2023-01-07T01:32:56.531Z,55.08
2023-01-07T01:35:23.183Z,55.28
2023-01-07T01:37:50.030Z,54.90
2023-01-07T01:40:16.697Z,58.05
2023-01-07T01:42:43.300Z,55.22
2023-01-07T01:45:11.856Z,56.03
2023-01-07T01:47:47.261Z,57.45
2023-01-07T01:50:42.279Z,53.50
2023-01-07T01:53:14.220Z,58.55
2023-01-07T01:55:47.535Z,54.30
2023-01-07T01:58:20.506Z,51.78
2023-01-07T02:00:47.334Z,51.20
2023-01-07T02:03:18.786Z,51.80
2023-01-07T02:05:46.256Z,52.10
2023-01-07T02:08:13.450Z,51.00
2023-01-07T02:10:40.151Z,48.70
2023-01-07T02:13:06.655Z,46.53
2023-01-07T02:15:51.789Z,44.38
2023-01-07T02:21:21.801Z,47.80
2023-01-07T02:24:25.909Z,50.15
2023-01-07T02:27:01.159Z,47.17
2023-01-07T02:30:01.377Z,46.42
2023-01-07T02:32:31.017Z,46.28
2023-01-07T02:35:24.643Z,44.28
2023-01-07T02:38:17.579Z,47.78
2023-01-07T02:41:02.443Z,46.40
2023-01-07T02:43:42.446Z,45.88
2023-01-07T02:46:24.181Z,42.15
2023-01-07T02:48:51.439Z,39.88
2023-01-07T02:51:18.021Z,37.08
2023-01-07T02:53:48.484Z,33.55
2023-01-07T02:56:30.285Z,31.52
2023-01-07T02:59:17.129Z,31.98
2023-01-07T03:02:14.016Z,31.88
2023-01-07T03:05:10.116Z,30.65
2023-01-07T03:08:15.260Z,34.58
2023-01-07T03:10:53.607Z,35.60
2023-01-07T03:13:37.628Z,35.80
2023-01-07T03:16:18.445Z,33.17
2023-01-07T03:18:56.270Z,34.13
2023-01-07T03:21:26.463Z,34.25
2023-01-07T03:23:56.752Z,33.25
2023-01-07T03:26:30.178Z,32.78
2023-01-07T03:29:00.129Z,30.55
2023-01-07T03:31:28.224Z,29.42
2023-01-07T03:33:57.568Z,29.90
2023-01-07T03:36:30.175Z,29.63
2023-01-07T03:38:57.068Z,31.60
2023-01-07T03:41:42.063Z,33.08
2023-01-07T03:44:08.623Z,35.03
2023-01-07T03:46:37.594Z,34.05
2023-01-07T03:49:04.800Z,31.77
2023-01-07T03:51:31.394Z,33.17
2023-01-07T03:53:57.996Z,30.98
2023-01-07T03:56:24.559Z,30.55
2023-01-07T03:58:51.172Z,28.10
2023-01-07T04:01:17.849Z,29.80
2023-01-07T04:03:44.472Z,29.08
2023-01-07T04:06:11.005Z,29.00
2023-01-07T04:08:37.687Z,28.70
2023-01-07T04:11:04.403Z,30.45
2023-01-07T04:13:31.205Z,29.20
2023-01-07T04:15:57.781Z,31.77
2023-01-07T04:18:25.444Z,32.80
2023-01-07T04:20:52.013Z,30.55
2023-01-07T04:23:18.615Z,31.83
2023-01-07T04:25:49.279Z,31.73
2023-01-07T04:28:16.207Z,34.55
2023-01-07T04:30:42.931Z,34.90
2023-01-07T04:33:09.614Z,32.80
2023-01-07T04:35:36.177Z,32.30
2023-01-07T04:38:02.792Z,33.72
2023-01-07T04:40:29.392Z,30.42
2023-01-07T04:42:56.009Z,32.38
2023-01-07T04:45:22.606Z,32.35
2023-01-07T04:47:49.215Z,33.35
2023-01-07T04:50:16.039Z,31.70
2023-01-07T04:52:42.966Z,33.05
2023-01-07T04:55:11.078Z,32.92
2023-01-07T04:57:37.753Z,30.80
2023-01-07T05:00:05.198Z,31.88
2023-01-07T05:02:31.936Z,31.13
2023-01-07T05:04:59.174Z,31.48
2023-01-07T05:07:25.778Z,29.23
2023-01-07T05:09:53.057Z,29.88
2023-01-07T05:12:19.597Z,33.17
2023-01-07T05:14:46.176Z,30.60
2023-01-07T05:17:12.736Z,31.67
2023-01-07T05:19:39.273Z,34.65
2023-01-07T05:22:05.903Z,35.25
2023-01-07T05:24:32.446Z,35.47
2023-01-07T05:26:59.095Z,37.45
2023-01-07T05:29:25.695Z,38.20
2023-01-07T05:31:52.360Z,39.10
2023-01-07T05:34:18.937Z,38.75
2023-01-07T05:36:45.528Z,39.13
2023-01-07T05:39:12.185Z,37.40
2023-01-07T05:41:38.776Z,37.38
2023-01-07T05:44:05.383Z,36.55
2023-01-07T05:46:31.999Z,35.03
2023-01-07T05:48:58.602Z,35.42
2023-01-07T05:51:25.320Z,34.53
2023-01-07T05:53:51.916Z,36.35
2023-01-07T05:56:18.827Z,37.42
2023-01-07T05:58:45.391Z,38.70
2023-01-07T06:01:12.030Z,39.58
2023-01-07T06:03:38.670Z,38.40
2023-01-07T06:06:07.446Z,39.60
2023-01-07T06:08:35.527Z,39.95
2023-01-07T06:11:02.510Z,40.00
2023-01-07T06:13:29.130Z,39.53
2023-01-07T06:16:04.163Z,40.88
2023-01-07T06:18:31.119Z,40.63
2023-01-07T06:20:57.718Z,39.10
2023-01-07T06:23:24.636Z,39.25
2023-01-07T06:25:51.348Z,40.33
2023-01-07T06:28:18.324Z,40.85
2023-01-07T06:30:46.436Z,41.67
2023-01-07T06:33:14.588Z,41.78
2023-01-07T06:35:41.508Z,41.17
2023-01-07T06:38:08.256Z,40.92
2023-01-07T06:40:34.879Z,42.20
2023-01-07T06:43:01.449Z,42.80
2023-01-07T06:45:28.177Z,42.35
2023-01-07T06:47:57.365Z,43.60
2023-01-07T06:50:24.532Z,41.72
2023-01-07T06:52:51.284Z,41.35
2023-01-07T06:55:17.995Z,43.58
2023-01-07T06:57:44.645Z,42.05
2023-01-07T07:00:11.848Z,43.05
2023-01-07T07:02:38.506Z,42.38
2023-01-07T07:05:05.419Z,44.03
2023-01-07T07:07:32.006Z,41.17
2023-01-07T07:09:58.782Z,40.67
2023-01-07T07:12:25.369Z,43.00
2023-01-07T07:14:51.932Z,44.35
2023-01-07T07:17:18.547Z,43.90
2023-01-07T07:19:45.099Z,44.80
2023-01-07T07:22:11.867Z,45.33
2023-01-07T07:24:38.457Z,43.25
2023-01-07T07:27:05.055Z,44.65
2023-01-07T07:29:31.649Z,46.83
2023-01-07T07:31:58.310Z,46.55
2023-01-07T07:34:24.913Z,50.65
2023-01-07T07:36:51.508Z,48.92
2023-01-07T07:39:18.151Z,50.63
2023-01-07T07:41:44.973Z,52.47
2023-01-07T07:44:11.583Z,54.38
2023-01-07T07:46:39.586Z,75.47
2023-01-07T07:49:09.568Z,73.13
2023-01-07T07:51:36.119Z,63.65
2023-01-07T07:54:02.747Z,69.80
2023-01-07T07:56:29.461Z,67.32
2023-01-07T07:58:56.012Z,66.18
2023-01-07T08:01:22.769Z,72.65
2023-01-07T08:03:49.393Z,70.65
2023-01-07T08:06:16.043Z,64.80
2023-01-07T08:08:42.694Z,57.65
2023-01-07T08:11:09.650Z,57.72
2023-01-07T08:13:36.239Z,67.53
2023-01-07T08:16:02.856Z,68.72
2023-01-07T08:18:29.485Z,74.10
2023-01-07T08:20:56.375Z,85.68
2023-01-07T08:23:23.282Z,84.70
2023-01-07T08:25:49.817Z,82.25
2023-01-07T08:28:16.466Z,74.63
2023-01-07T08:30:43.107Z,73.75
2023-01-07T08:33:09.762Z,68.97
2023-01-07T08:35:36.419Z,58.90
2023-01-07T08:38:08.706Z,53.90
2023-01-07T08:40:36.883Z,45.90
2023-01-07T08:43:07.457Z,45.30
2023-01-07T08:45:34.466Z,70.28
2023-01-07T08:48:01.195Z,101.38
2023-01-07T08:50:29.960Z,148.88
2023-01-07T08:52:56.817Z,218.50
2023-01-07T08:55:23.815Z,258.55
2023-01-07T08:57:52.188Z,80.68
2023-01-07T09:00:19.527Z,84.72
2023-01-07T09:02:46.332Z,90.10
2023-01-07T09:05:13.518Z,78.28
2023-01-07T09:07:40.163Z,81.68
2023-01-07T09:10:07.495Z,69.65
2023-01-07T09:12:34.137Z,53.08
2023-01-07T09:15:00.794Z,69.03
2023-01-07T09:17:28.081Z,43.13
2023-01-07T09:19:54.764Z,76.03
2023-01-07T09:22:22.220Z,54.92
2023-01-07T09:24:48.801Z,95.05
2023-01-07T09:27:16.698Z,47.17
2023-01-07T09:29:43.486Z,32.30
2023-01-07T09:32:10.717Z,30.88
2023-01-07T09:34:38.468Z,28.95
2023-01-07T09:37:06.212Z,31.17
2023-01-07T09:39:33.056Z,29.65
2023-01-07T09:42:33.801Z,29.42
2023-01-07T09:45:45.500Z,29.95
2023-01-07T09:48:22.033Z,26.45
2023-01-07T09:51:02.045Z,24.15
2023-01-07T09:53:39.409Z,23.40
2023-01-07T09:56:12.979Z,23.35
2023-01-07T09:58:42.533Z,20.50
2023-01-07T10:01:32.141Z,19.98
2023-01-07T10:04:10.903Z,17.55
2023-01-07T10:07:45.044Z,18.35
2023-01-07T10:10:26.080Z,18.73
2023-01-07T10:13:20.350Z,18.67
2023-01-07T10:16:22.353Z,18.90
2023-01-07T10:19:27.352Z,17.70
2023-01-07T10:21:58.950Z,19.02
2023-01-07T10:24:28.795Z,19.65
2023-01-07T10:27:01.564Z,18.05
2023-01-07T10:29:44.711Z,21.40
2023-01-07T10:32:16.890Z,20.08
2023-01-07T10:34:56.695Z,17.45
2023-01-07T10:37:36.368Z,18.23
2023-01-07T10:40:24.224Z,15.68
2023-01-07T10:43:16.224Z,17.70
2023-01-07T10:45:54.950Z,19.10
2023-01-07T10:48:30.216Z,18.58
2023-01-07T10:51:18.127Z,18.92
2023-01-07T10:54:15.563Z,18.20
2023-01-07T10:56:49.611Z,19.48
2023-01-07T10:59:19.562Z,19.42
2023-01-07T11:01:50.533Z,19.02
2023-01-07T11:04:17.941Z,20.00
2023-01-07T11:06:47.747Z,18.10
2023-01-07T11:09:20.011Z,17.55
2023-01-07T11:11:48.361Z,18.73
2023-01-07T11:14:37.667Z,19.50
2023-01-07T11:17:18.476Z,19.17
2023-01-07T11:19:54.196Z,18.85
2023-01-07T11:22:26.899Z,18.13
2023-01-07T11:24:58.593Z,17.90
2023-01-07T11:27:30.297Z,19.25
2023-01-07T11:30:05.503Z,19.20
2023-01-07T11:32:35.332Z,18.52
2023-01-07T11:35:18.092Z,17.77
2023-01-07T11:37:48.601Z,18.42
2023-01-07T11:40:15.161Z,17.70
2023-01-07T11:43:20.328Z,17.98
2023-01-07T11:46:19.644Z,19.58
2023-01-07T11:48:50.022Z,17.38
2023-01-07T11:51:17.092Z,17.55
2023-01-07T11:53:52.848Z,18.48
2023-01-07T11:56:30.621Z,17.88
2023-01-07T11:59:12.380Z,18.98
2023-01-07T12:01:43.407Z,18.40
2023-01-07T12:04:29.665Z,17.88
2023-01-07T12:07:00.384Z,18.20
2023-01-07T12:09:33.840Z,18.13
2023-01-07T12:12:31.939Z,16.42
2023-01-07T12:15:05.930Z,17.20
2023-01-07T12:17:35.221Z,17.70
2023-01-07T12:20:33.450Z,18.20
2023-01-07T12:23:25.918Z,17.00
2023-01-07T12:26:12.691Z,17.17
2023-01-07T12:29:01.999Z,18.15
2023-01-07T12:32:12.052Z,17.27
2023-01-07T12:35:15.487Z,16.65
2023-01-07T12:37:48.648Z,16.30
2023-01-07T12:40:18.178Z,18.03
2023-01-07T12:42:53.886Z,17.42
2023-01-07T12:45:33.911Z,17.13
2023-01-07T12:48:07.067Z,16.65
2023-01-07T12:50:43.641Z,17.05
2023-01-07T12:53:36.593Z,16.95
2023-01-07T12:56:23.931Z,16.75
2023-01-07T12:58:55.196Z,16.05
2023-01-07T13:01:30.224Z,17.52
2023-01-07T13:03:56.773Z,16.98
2023-01-07T13:06:38.469Z,17.27
2023-01-07T13:09:18.318Z,16.95
2023-01-07T13:12:45.915Z,16.67
2023-01-07T13:15:22.986Z,17.27
2023-01-07T13:17:51.279Z,17.80
2023-01-07T13:20:28.416Z,18.55
2023-01-07T13:22:57.938Z,17.33
2023-01-07T13:25:39.914Z,16.95
2023-01-07T13:28:21.733Z,18.33
2023-01-07T13:31:10.288Z,19.42
2023-01-07T13:33:36.839Z,20.52
2023-01-07T13:36:06.411Z,19.25
2023-01-07T13:38:54.087Z,20.90
2023-01-07T13:41:34.587Z,18.17
2023-01-07T13:44:43.227Z,19.67
2023-01-07T13:47:14.539Z,19.23
2023-01-07T13:49:56.495Z,19.00
2023-01-07T13:52:27.703Z,19.42
2023-01-07T13:54:56.933Z,19.77
2023-01-07T13:57:23.437Z,19.38
2023-01-07T13:59:52.850Z,21.08
2023-01-07T14:02:28.343Z,21.10
2023-01-07T14:05:29.210Z,19.80
2023-01-07T14:07:59.901Z,19.48
2023-01-07T14:10:34.965Z,17.90
2023-01-07T14:13:20.555Z,17.42
2023-01-07T14:15:59.503Z,17.35
2023-01-07T14:18:48.273Z,16.23
2023-01-07T14:21:22.530Z,17.20
2023-01-07T14:24:04.033Z,16.42
2023-01-07T14:26:41.966Z,17.65
2023-01-07T14:29:11.222Z,18.45
2023-01-07T14:31:37.921Z,19.38
2023-01-07T14:34:19.163Z,19.85
2023-01-07T14:37:09.738Z,19.23
2023-01-07T14:39:44.688Z,20.00
2023-01-07T14:42:20.357Z,18.52
2023-01-07T14:44:48.706Z,19.45
2023-01-07T14:47:41.034Z,18.88
2023-01-07T14:50:22.158Z,18.05
2023-01-07T14:52:48.675Z,16.80
2023-01-07T14:55:38.044Z,18.13
2023-01-07T14:58:25.755Z,18.25
2023-01-07T15:00:58.502Z,19.38
2023-01-07T15:03:59.524Z,20.65
2023-01-07T15:06:30.910Z,24.58
2023-01-07T15:09:24.344Z,28.25
2023-01-07T15:12:11.848Z,31.70
2023-01-07T15:15:07.861Z,35.08
2023-01-07T15:17:38.324Z,39.03
2023-01-07T15:20:06.484Z,43.55
2023-01-07T15:23:06.990Z,43.72
2023-01-07T15:25:56.527Z,44.10
2023-01-07T15:28:36.355Z,44.30
2023-01-07T15:31:36.866Z,43.40
2023-01-07T15:34:16.625Z,39.30
2023-01-07T15:36:49.801Z,37.35
2023-01-07T15:39:41.377Z,35.30
2023-01-07T15:42:16.145Z,31.73
2023-01-07T15:44:43.183Z,33.03
2023-01-07T15:47:41.617Z,31.33
2023-01-07T15:50:30.980Z,27.90
2023-01-07T15:53:22.191Z,30.08
2023-01-07T15:55:48.716Z,31.15
2023-01-07T15:58:19.642Z,33.03
2023-01-07T16:00:54.482Z,32.60
2023-01-07T16:03:21.925Z,33.40
2023-01-07T16:05:48.824Z,34.88
2023-01-07T16:08:27.177Z,38.15
2023-01-07T16:11:03.878Z,42.22
2023-01-07T16:13:31.497Z,41.63
2023-01-07T16:16:03.245Z,48.97
2023-01-07T16:18:34.156Z,42.78
2023-01-07T16:21:12.755Z,42.97
2023-01-07T16:23:40.381Z,39.42
2023-01-07T16:26:08.548Z,37.03
2023-01-07T16:28:41.965Z,38.85
2023-01-07T16:31:15.070Z,35.40
2023-01-07T16:33:43.169Z,36.10
2023-01-07T16:36:23.161Z,34.10
2023-01-07T16:38:56.836Z,37.25
2023-01-07T16:41:28.609Z,46.95
2023-01-07T16:43:56.689Z,65.93
2023-01-07T16:46:27.528Z,90.28
2023-01-07T16:49:09.693Z,112.35
2023-01-07T16:51:47.229Z,139.80
2023-01-07T16:54:28.257Z,162.35
2023-01-07T16:56:55.927Z,198.27
2023-01-07T16:59:26.427Z,215.27
2023-01-07T17:01:53.736Z,219.15
2023-01-07T17:04:27.812Z,208.95
2023-01-07T17:06:54.647Z,191.20
2023-01-07T17:09:32.705Z,163.60
2023-01-07T17:11:59.459Z,142.65
2023-01-07T17:14:38.206Z,115.75
2023-01-07T17:17:19.634Z,91.57
2023-01-07T17:20:12.541Z,73.95
2023-01-07T17:22:39.591Z,54.03
2023-01-07T17:25:07.105Z,49.90
2023-01-07T17:27:34.785Z,43.50
2023-01-07T17:30:03.084Z,43.42
2023-01-07T17:32:31.226Z,46.17
2023-01-07T17:35:04.037Z,47.70
2023-01-07T17:37:31.887Z,45.55
2023-01-07T17:39:58.623Z,48.70
2023-01-07T17:42:47.988Z,48.20
2023-01-07T17:45:17.071Z,46.95
2023-01-07T17:47:43.809Z,50.28
2023-01-07T17:50:13.442Z,53.50
2023-01-07T17:52:42.155Z,53.97
2023-01-07T17:55:14.101Z,56.97
2023-01-07T17:57:40.656Z,53.17
2023-01-07T18:00:12.511Z,53.22
2023-01-07T18:02:39.203Z,52.33
2023-01-07T18:05:06.319Z,56.30
2023-01-07T18:07:32.850Z,53.33
2023-01-07T18:09:59.449Z,56.95
2023-01-07T18:12:33.407Z,53.33
2023-01-07T18:15:04.248Z,52.47
2023-01-07T18:17:30.934Z,53.78
2023-01-07T18:19:57.560Z,54.97
2023-01-07T18:22:25.348Z,53.78
2023-01-07T18:24:52.127Z,50.42
2023-01-07T18:27:19.335Z,51.65
2023-01-07T18:29:45.971Z,49.85
2023-01-07T18:32:12.568Z,51.08
2023-01-07T18:34:39.156Z,51.20
2023-01-07T18:37:06.064Z,50.17
2023-01-07T18:39:32.672Z,53.28
2023-01-07T18:41:59.279Z,52.63
2023-01-07T18:44:26.002Z,50.55
2023-01-07T18:46:52.628Z,50.90
2023-01-07T18:49:19.341Z,52.78
2023-01-07T18:51:47.680Z,55.50
2023-01-07T18:54:15.350Z,55.33
2023-01-07T18:56:42.025Z,57.83
2023-01-07T18:59:08.613Z,59.75
2023-01-07T19:01:35.304Z,62.25
2023-01-07T19:04:02.586Z,66.80
2023-01-07T19:06:29.277Z,65.18
2023-01-07T19:08:56.989Z,64.75
2023-01-07T19:11:23.658Z,67.05
2023-01-07T19:13:50.254Z,71.07
2023-01-07T19:16:16.869Z,72.03
2023-01-07T19:18:43.471Z,77.43
2023-01-07T19:21:12.168Z,76.47
2023-01-07T19:23:38.972Z,79.25
2023-01-07T19:26:08.377Z,74.13
2023-01-07T19:28:35.687Z,80.88
2023-01-07T19:31:07.160Z,81.15
2023-01-07T19:33:34.897Z,81.03
2023-01-07T19:36:03.704Z,84.47
2023-01-07T19:38:30.645Z,89.57
2023-01-07T19:40:57.239Z,83.57
2023-01-07T19:43:23.900Z,90.82
2023-01-07T19:45:55.599Z,89.60
2023-01-07T19:48:23.330Z,91.90
2023-01-07T19:51:08.725Z,90.20
2023-01-07T19:53:35.787Z,91.07
2023-01-07T19:56:05.538Z,92.18
2023-01-07T19:58:32.801Z,93.78
2023-01-07T20:01:07.698Z,95.75
2023-01-07T20:03:35.455Z,92.55
2023-01-07T20:06:10.118Z,95.90
2023-01-07T20:11:03.982Z,74.82
2023-01-07T20:13:35.623Z,87.25
2023-01-07T20:16:07.361Z,85.75
2023-01-07T20:18:42.646Z,89.85
2023-01-07T20:21:10.131Z,90.93
2023-01-07T20:23:41.041Z,92.10
2023-01-07T20:26:18.715Z,93.00
2023-01-07T20:28:46.186Z,87.30
2023-01-07T20:31:15.028Z,93.80
2023-01-07T20:33:42.459Z,93.35
2023-01-07T20:36:12.180Z,91.43
2023-01-07T20:38:39.287Z,93.47
2023-01-07T20:41:08.529Z,92.43
2023-01-07T20:43:36.559Z,94.43
2023-01-07T20:46:06.177Z,91.60
2023-01-07T20:48:33.789Z,91.90
2023-01-07T20:51:05.278Z,94.78
2023-01-07T20:53:31.963Z,90.25
2023-01-07T20:56:00.047Z,94.72
2023-01-07T20:58:27.936Z,95.93
2023-01-07T21:00:54.624Z,93.80
2023-01-07T21:03:21.447Z,94.85
2023-01-07T21:05:48.148Z,92.03
2023-01-07T21:08:14.771Z,91.57
2023-01-07T21:10:41.552Z,93.57
2023-01-07T21:13:08.153Z,90.82
2023-01-07T21:15:36.576Z,91.97
2023-01-07T21:18:03.274Z,95.53
2023-01-07T21:20:29.907Z,95.18
2023-01-07T21:22:56.431Z,94.78
2023-01-07T21:25:23.067Z,94.95
2023-01-07T21:27:49.706Z,92.93
2023-01-07T21:30:18.180Z,91.57
2023-01-07T21:32:44.951Z,93.43
2023-01-07T21:35:12.403Z,93.78
2023-01-07T21:37:39.872Z,95.88
2023-01-07T21:40:07.340Z,94.78
2023-01-07T21:42:36.687Z,97.47
2023-01-07T21:45:03.964Z,96.13
2023-01-07T21:47:30.636Z,98.57
2023-01-07T21:49:58.405Z,98.95
2023-01-07T21:52:25.108Z,102.80
2023-01-07T21:54:52.015Z,105.47
2023-01-07T21:57:19.511Z,100.70
2023-01-07T21:59:46.431Z,100.75
2023-01-07T22:02:13.773Z,103.90
2023-01-07T22:04:43.475Z,103.78
2023-01-07T22:07:14.000Z,101.32
2023-01-07T22:09:40.958Z,100.15
2023-01-07T22:12:08.689Z,104.00
2023-01-07T22:14:35.281Z,100.55
2023-01-07T22:17:01.916Z,104.05
2023-01-07T22:19:28.711Z,110.72
2023-01-07T22:21:55.620Z,110.38
2023-01-07T22:24:22.179Z,111.25
2023-01-07T22:26:48.870Z,113.95
2023-01-07T22:29:17.373Z,113.95
2023-01-07T22:31:48.183Z,115.35
2023-01-07T22:34:14.903Z,111.75
2023-01-07T22:36:48.140Z,109.43
2023-01-07T22:39:25.959Z,117.22
2023-01-07T22:41:57.338Z,111.45
2023-01-07T22:44:33.338Z,120.95
2023-01-07T22:47:00.235Z,109.90
2023-01-07T22:49:30.484Z,116.53
2023-01-07T22:51:57.483Z,117.80
2023-01-07T22:54:26.131Z,121.30
2023-01-07T22:56:53.001Z,120.57
2023-01-07T22:59:19.542Z,118.30
2023-01-07T23:01:46.114Z,121.47
2023-01-07T23:04:13.259Z,122.22
2023-01-07T23:06:39.926Z,125.15
2023-01-07T23:09:06.635Z,129.60
2023-01-07T23:11:48.282Z,133.45
2023-01-07T23:14:16.849Z,124.50
2023-01-07T23:16:43.835Z,123.55
2023-01-07T23:19:10.851Z,124.10
2023-01-07T23:21:40.104Z,127.68
2023-01-07T23:24:07.380Z,124.13
2023-01-07T23:26:33.935Z,130.43
2023-01-07T23:29:00.499Z,131.05
2023-01-07T23:31:27.291Z,125.63
2023-01-07T23:33:53.912Z,126.03
2023-01-07T23:36:20.485Z,121.00
2023-01-07T23:38:47.156Z,126.68
2023-01-07T23:41:13.964Z,125.03
2023-01-07T23:43:40.658Z,122.63
2023-01-07T23:46:08.436Z,129.23
2023-01-07T23:48:37.231Z,127.47
2023-01-07T23:51:09.562Z,126.45
2023-01-07T23:53:36.436Z,133.05
2023-01-07T23:56:03.724Z,132.25
2023-01-07T23:58:30.841Z,130.18
